Terminal Aerodrome Forecast
Issued by NWS

Home | Current Version | Previous Version | Text Only | Print | Product List | Glossary On
Versions: 1 2 3 4 5 6 7 8 9 10 11 12
000
FTUS41 KBTV 191720
TAFMSS
TAF
KMSS 191720Z 1918/2018 20010G22KT P6SM SCT140
     FM191900 19005KT P6SM BKN090
     FM192100 VRB03KT P6SM VCSH OVC035
     FM200000 VRB03KT 6SM -RA BR OVC025
     FM200300 VRB03KT 5SM -RA BR OVC008
     FM200800 07004KT 4SM -RA BR OVC005=

USA.gov is the U.S. government's official web portal to all federal, state and local government web resources and services.